createdAt,value
2022-10-11T00:00:03.043Z,0.00
2022-10-11T00:01:02.907Z,0.00
2022-10-11T00:02:02.836Z,0.00
2022-10-11T00:03:02.796Z,0.00
2022-10-11T00:04:02.761Z,0.00
2022-10-11T00:05:02.755Z,0.00
2022-10-11T00:06:02.910Z,0.00
2022-10-11T00:07:02.635Z,0.00
2022-10-11T00:08:02.585Z,0.00
2022-10-11T00:09:02.541Z,0.00
2022-10-11T00:10:02.505Z,0.00
2022-10-11T00:11:02.502Z,0.00
2022-10-11T00:12:02.420Z,0.00
2022-10-11T00:13:02.372Z,0.00
2022-10-11T00:14:02.328Z,0.00
2022-10-11T00:15:02.302Z,0.00
2022-10-11T00:16:02.509Z,0.00
2022-10-11T00:17:02.466Z,0.00
2022-10-11T00:18:05.260Z,0.00
2022-10-11T00:19:02.377Z,0.00
2022-10-11T00:20:02.073Z,0.00
2022-10-11T00:21:02.033Z,0.00
2022-10-11T00:22:01.998Z,0.00
2022-10-11T00:23:01.962Z,0.00
2022-10-11T00:24:01.926Z,0.00
2022-10-11T00:25:01.856Z,0.00
2022-10-11T00:26:02.114Z,0.00
2022-10-11T00:27:01.774Z,0.00
2022-10-11T00:28:01.735Z,0.00
2022-10-11T00:29:01.873Z,0.00
2022-10-11T00:30:01.652Z,0.00
2022-10-11T00:31:01.852Z,0.00
2022-10-11T00:32:01.560Z,0.00
2022-10-11T00:33:01.517Z,0.00
2022-10-11T00:34:01.481Z,0.00
2022-10-11T00:35:01.464Z,0.00
2022-10-11T00:36:01.586Z,0.00
2022-10-11T00:37:01.347Z,0.00
2022-10-11T00:38:01.306Z,0.00
2022-10-11T00:39:01.267Z,0.00
2022-10-11T00:40:01.225Z,0.00
2022-10-11T00:41:01.198Z,0.00
2022-10-11T00:42:01.131Z,0.00
2022-10-11T00:43:01.095Z,0.00
2022-10-11T00:44:01.047Z,0.00
2022-10-11T00:45:01.005Z,0.00
2022-10-11T00:46:01.074Z,0.00
2022-10-11T00:47:00.956Z,0.00
2022-10-11T00:48:00.877Z,0.00
2022-10-11T00:49:00.836Z,0.00
2022-10-11T00:50:00.793Z,0.00
2022-10-11T00:51:00.814Z,0.00
2022-10-11T00:52:00.706Z,0.00
2022-10-11T00:53:00.681Z,0.00
2022-10-11T00:54:00.619Z,0.00
2022-10-11T00:55:00.598Z,0.00
2022-10-11T00:56:00.534Z,0.00
2022-10-11T00:57:00.506Z,0.00
2022-10-11T00:58:00.453Z,0.00
2022-10-11T00:59:00.410Z,0.00
2022-10-11T01:00:00.385Z,0.00
2022-10-11T01:01:00.399Z,0.00
2022-10-11T01:02:00.278Z,0.00
2022-10-11T01:03:00.243Z,0.00
2022-10-11T01:04:00.203Z,0.00
2022-10-11T01:05:25.234Z,0.00
2022-10-11T01:06:00.110Z,0.00
2022-10-11T01:07:00.072Z,0.00
2022-10-11T01:08:00.030Z,0.00
2022-10-11T01:08:59.983Z,0.00
2022-10-11T01:09:59.945Z,0.00
2022-10-11T01:10:59.939Z,0.00
2022-10-11T01:11:59.859Z,0.00
2022-10-11T01:12:59.813Z,0.00
2022-10-11T01:13:59.772Z,0.00
2022-10-11T01:14:59.730Z,0.00
2022-10-11T01:15:59.687Z,0.00
2022-10-11T01:16:59.685Z,0.00
2022-10-11T01:17:59.610Z,0.00
2022-10-11T01:18:59.561Z,0.00
2022-10-11T01:19:59.519Z,0.00
2022-10-11T01:20:59.483Z,0.00
2022-10-11T01:21:59.437Z,0.00
2022-10-11T01:22:59.436Z,0.00
2022-10-11T01:23:59.359Z,0.00
2022-10-11T01:24:59.310Z,0.00
2022-10-11T01:25:59.268Z,0.00
2022-10-11T01:26:59.224Z,0.00
2022-10-11T01:27:59.180Z,0.00
2022-10-11T01:28:59.170Z,0.00
2022-10-11T01:29:59.091Z,0.00
2022-10-11T01:30:59.057Z,0.00
2022-10-11T01:32:08.048Z,0.00
2022-10-11T01:32:58.971Z,0.00
2022-10-11T01:33:58.922Z,0.00
2022-10-11T01:34:59.088Z,0.00
2022-10-11T01:35:58.841Z,0.00
2022-10-11T01:36:58.805Z,0.00
2022-10-11T01:37:58.756Z,0.00
2022-10-11T01:38:58.717Z,0.00
2022-10-11T01:39:58.671Z,0.00
2022-10-11T01:40:58.829Z,0.00
2022-10-11T01:41:58.585Z,0.00
2022-10-11T01:42:58.545Z,0.00
2022-10-11T01:43:58.502Z,0.00
2022-10-11T01:44:58.466Z,0.00
2022-10-11T01:45:58.414Z,0.00
2022-10-11T01:46:58.413Z,0.00
2022-10-11T01:47:58.328Z,0.00
2022-10-11T01:48:58.285Z,0.00
2022-10-11T01:49:58.244Z,0.00
2022-10-11T01:50:58.205Z,0.00
2022-10-11T01:51:58.161Z,0.00
2022-10-11T01:52:58.143Z,0.00
2022-10-11T01:53:58.078Z,0.00
2022-10-11T01:55:09.043Z,0.00
2022-10-11T01:55:57.991Z,0.00
2022-10-11T01:56:57.948Z,0.00
2022-10-11T01:57:57.908Z,0.00
2022-10-11T01:58:57.904Z,0.00
2022-10-11T01:59:57.818Z,0.00
2022-10-11T02:00:57.896Z,0.00
2022-10-11T02:01:57.805Z,0.00
2022-10-11T02:02:57.693Z,0.00
2022-10-11T02:03:57.652Z,0.00
2022-10-11T02:04:57.637Z,0.00
2022-10-11T02:05:57.564Z,0.00
2022-10-11T02:06:57.524Z,0.00
2022-10-11T02:07:57.480Z,0.00
2022-10-11T02:08:57.442Z,0.00
2022-10-11T02:09:57.395Z,0.00
2022-10-11T02:10:57.533Z,0.00
2022-10-11T02:11:57.319Z,0.00
2022-10-11T02:12:57.268Z,0.00
2022-10-11T02:13:57.227Z,0.00
2022-10-11T02:14:57.183Z,0.00
2022-10-11T02:15:57.136Z,0.00
2022-10-11T02:16:57.135Z,0.00
2022-10-11T02:17:57.061Z,0.00
2022-10-11T02:18:57.016Z,0.00
2022-10-11T02:19:56.977Z,0.00
2022-10-11T02:20:56.928Z,0.00
2022-10-11T02:21:56.886Z,0.00
2022-10-11T02:22:56.858Z,0.00
2022-10-11T02:23:56.804Z,0.00
2022-10-11T02:24:56.758Z,0.00
2022-10-11T02:25:56.731Z,0.00
2022-10-11T02:26:56.672Z,0.00
2022-10-11T02:27:56.628Z,0.00
2022-10-11T02:28:56.647Z,0.00
2022-10-11T02:29:56.545Z,0.00
2022-10-11T02:30:56.608Z,0.00
2022-10-11T02:31:56.460Z,0.00
2022-10-11T02:32:56.420Z,0.00
2022-10-11T02:33:56.376Z,0.00
2022-10-11T02:34:56.337Z,0.00
2022-10-11T02:35:56.294Z,0.00
2022-10-11T02:36:56.275Z,0.00
2022-10-11T02:37:56.202Z,0.00
2022-10-11T02:38:56.168Z,0.00
2022-10-11T02:39:56.121Z,0.00
2022-10-11T02:40:56.075Z,0.00
2022-10-11T02:41:56.034Z,0.00
2022-10-11T02:42:56.023Z,0.00
2022-10-11T02:43:55.951Z,0.00
2022-10-11T02:44:55.911Z,0.00
2022-10-11T02:45:55.865Z,0.00
2022-10-11T02:46:55.851Z,0.00
2022-10-11T02:47:55.809Z,0.00
2022-10-11T02:48:55.736Z,0.00
2022-10-11T02:49:55.698Z,0.00
2022-10-11T02:50:55.655Z,0.00
2022-10-11T02:51:55.609Z,0.00
2022-10-11T02:52:55.590Z,0.00
2022-10-11T02:53:55.527Z,0.00
2022-10-11T02:54:55.487Z,0.00
2022-10-11T02:55:55.440Z,0.00
2022-10-11T02:56:55.423Z,0.00
2022-10-11T02:57:55.354Z,0.00
2022-10-11T02:58:55.310Z,0.00
2022-10-11T02:59:55.277Z,0.00
2022-10-11T03:00:55.244Z,0.00
2022-10-11T03:01:55.241Z,0.00
2022-10-11T03:02:55.168Z,0.00
2022-10-11T03:03:55.097Z,0.00
2022-10-11T03:04:55.055Z,0.00
2022-10-11T03:05:55.015Z,0.00
2022-10-11T03:06:54.980Z,0.00
2022-10-11T03:07:54.928Z,0.00
2022-10-11T03:08:54.902Z,0.00
2022-10-11T03:09:54.846Z,0.00
2022-10-11T03:10:54.801Z,0.00
2022-10-11T03:11:54.756Z,0.00
2022-10-11T03:12:54.714Z,0.00
2022-10-11T03:13:54.695Z,0.00
2022-10-11T03:14:54.628Z,0.00
2022-10-11T03:16:07.405Z,0.00
2022-10-11T03:16:54.537Z,0.00
2022-10-11T03:17:54.500Z,0.00
2022-10-11T03:18:54.456Z,0.00
2022-10-11T03:19:54.455Z,0.00
2022-10-11T03:20:54.373Z,0.00
2022-10-11T03:21:54.329Z,0.00
2022-10-11T03:22:54.283Z,0.00
2022-10-11T03:23:54.242Z,0.00
2022-10-11T03:24:54.194Z,0.00
2022-10-11T03:25:54.349Z,0.00
2022-10-11T03:26:54.122Z,0.00
2022-10-11T03:27:54.071Z,0.00
2022-10-11T03:28:54.116Z,0.00
2022-10-11T03:29:53.982Z,0.00
2022-10-11T03:30:53.944Z,0.00
2022-10-11T03:31:53.919Z,0.00
2022-10-11T03:32:53.859Z,0.00
2022-10-11T03:33:53.819Z,0.00
2022-10-11T03:34:53.769Z,0.00
2022-10-11T03:35:53.730Z,0.00
2022-10-11T03:36:53.688Z,0.00
2022-10-11T03:37:53.938Z,0.00
2022-10-11T03:38:53.601Z,0.00
2022-10-11T03:39:53.553Z,0.00
2022-10-11T03:40:53.508Z,0.00
2022-10-11T03:41:53.469Z,0.00
2022-10-11T03:42:53.428Z,0.00
2022-10-11T03:43:53.429Z,0.00
2022-10-11T03:44:53.337Z,0.00
2022-10-11T03:45:53.298Z,0.00
2022-10-11T03:46:53.251Z,0.00
2022-10-11T03:47:53.212Z,0.00
2022-10-11T03:48:53.165Z,0.00
2022-10-11T03:49:53.150Z,0.00
2022-10-11T03:50:53.078Z,0.00
2022-10-11T03:51:53.108Z,0.00
2022-10-11T03:52:52.996Z,0.00
2022-10-11T03:53:52.949Z,0.00
2022-10-11T03:54:52.911Z,0.00
2022-10-11T03:55:53.065Z,0.00
2022-10-11T03:56:52.823Z,0.00
2022-10-11T03:57:52.781Z,0.00
2022-10-11T03:58:52.734Z,0.00
2022-10-11T03:59:52.696Z,0.00
2022-10-11T04:00:52.653Z,0.00
2022-10-11T04:01:52.726Z,0.00
2022-10-11T04:02:52.561Z,0.00
2022-10-11T04:03:52.518Z,0.00
2022-10-11T04:04:52.479Z,0.00
2022-10-11T04:05:52.432Z,0.00
2022-10-11T04:06:52.389Z,0.00
2022-10-11T04:07:52.402Z,0.00
2022-10-11T04:08:52.309Z,0.00
2022-10-11T04:09:52.260Z,0.00
2022-10-11T04:10:52.221Z,0.00
2022-10-11T04:11:52.173Z,0.00
2022-10-11T04:12:52.131Z,0.00
2022-10-11T04:13:52.104Z,0.00
2022-10-11T04:14:52.042Z,0.00
2022-10-11T04:15:51.998Z,0.00
2022-10-11T04:16:51.956Z,0.00
2022-10-11T04:17:51.914Z,0.00
2022-10-11T04:18:51.904Z,0.00
2022-10-11T04:19:51.823Z,0.00
2022-10-11T04:20:51.783Z,0.00
2022-10-11T04:21:51.740Z,0.00
2022-10-11T04:22:51.698Z,0.00
2022-10-11T04:23:51.656Z,0.00
2022-10-11T04:24:51.661Z,0.00
2022-10-11T04:25:51.566Z,0.00
2022-10-11T04:26:51.525Z,0.00
2022-10-11T04:27:51.479Z,0.00
2022-10-11T04:28:51.499Z,0.00
2022-10-11T04:29:51.390Z,0.00
2022-10-11T04:30:51.383Z,0.00
2022-10-11T04:31:51.309Z,0.00
2022-10-11T04:32:51.262Z,0.00
2022-10-11T04:33:51.225Z,0.00
2022-10-11T04:34:51.179Z,0.00
2022-10-11T04:35:51.134Z,0.00
2022-10-11T04:36:51.121Z,0.00
2022-10-11T04:37:51.043Z,0.00
2022-10-11T04:38:51.007Z,0.00
2022-10-11T04:39:50.966Z,0.00
2022-10-11T04:40:50.928Z,0.00
2022-10-11T04:41:50.872Z,0.00
2022-10-11T04:42:50.863Z,0.00
2022-10-11T04:43:50.791Z,0.00
2022-10-11T04:44:50.750Z,0.00
2022-10-11T04:45:55.243Z,0.00
2022-10-11T04:46:50.665Z,0.00
2022-10-11T04:47:50.622Z,0.00
2022-10-11T04:48:50.607Z,0.00
2022-10-11T04:49:50.532Z,0.00
2022-10-11T04:50:50.488Z,0.00
2022-10-11T04:51:50.446Z,0.00
2022-10-11T04:52:50.402Z,0.00
2022-10-11T04:53:50.356Z,0.00
2022-10-11T04:54:50.341Z,0.00
2022-10-11T04:55:50.272Z,0.00
2022-10-11T04:56:50.224Z,0.00
2022-10-11T04:57:50.187Z,0.00
2022-10-11T04:58:50.145Z,0.00
2022-10-11T04:59:50.411Z,0.00
2022-10-11T05:00:50.087Z,0.00
2022-10-11T05:01:50.059Z,0.00
2022-10-11T05:02:49.966Z,0.00
2022-10-11T05:03:49.925Z,0.00
2022-10-11T05:04:49.901Z,0.00
2022-10-11T05:05:49.841Z,0.00
2022-10-11T05:06:49.794Z,0.00
2022-10-11T05:07:49.751Z,0.00
2022-10-11T05:08:49.729Z,0.00
2022-10-11T05:09:49.666Z,0.00
2022-10-11T05:10:49.618Z,4.00
2022-10-11T05:11:49.598Z,4.00
2022-10-11T05:12:49.586Z,4.00
2022-10-11T05:13:49.491Z,4.00
2022-10-11T05:14:49.455Z,4.00
2022-10-11T05:15:49.405Z,4.00
2022-10-11T05:16:49.358Z,4.00
2022-10-11T05:17:49.322Z,8.00
2022-10-11T05:18:49.294Z,12.00
2022-10-11T05:19:49.230Z,12.00
2022-10-11T05:20:49.187Z,16.00
2022-10-11T05:21:49.143Z,20.00
2022-10-11T05:22:49.128Z,20.00
2022-10-11T05:23:49.058Z,24.00
2022-10-11T05:24:49.052Z,28.00
2022-10-11T05:25:48.988Z,36.00
2022-10-11T05:26:48.927Z,44.00
2022-10-11T05:27:48.882Z,48.00
2022-10-11T05:28:48.952Z,60.00
2022-10-11T05:29:48.798Z,68.00
2022-10-11T05:30:48.755Z,80.00
2022-10-11T05:31:48.716Z,92.00
2022-10-11T05:32:48.846Z,108.00
2022-10-11T05:33:48.628Z,120.00
2022-10-11T05:34:48.580Z,140.00
2022-10-11T05:35:48.537Z,156.00
2022-10-11T05:36:48.499Z,172.00
2022-10-11T05:37:48.452Z,188.00
2022-10-11T05:38:48.463Z,212.00
2022-10-11T05:39:48.373Z,228.00
2022-10-11T05:40:48.320Z,248.00
2022-10-11T05:41:48.280Z,264.00
2022-10-11T05:42:48.238Z,288.00
2022-10-11T05:43:48.193Z,312.00
2022-10-11T05:44:48.176Z,336.00
2022-10-11T05:45:48.135Z,368.00
2022-10-11T05:46:48.094Z,396.00
2022-10-11T05:47:48.020Z,428.00
2022-10-11T05:48:47.991Z,464.00
2022-10-11T05:49:47.931Z,504.00
2022-10-11T05:50:47.891Z,536.00
2022-10-11T05:51:47.882Z,568.00
2022-10-11T05:52:47.803Z,600.00
2022-10-11T05:53:47.763Z,624.00
2022-10-11T05:54:47.720Z,652.00
2022-10-11T05:55:47.676Z,676.00
2022-10-11T05:56:47.632Z,704.00
2022-10-11T05:57:47.613Z,740.00
2022-10-11T05:58:47.551Z,772.00
2022-10-11T05:59:47.501Z,800.00
2022-10-11T06:04:02.122Z,944.00
2022-10-11T06:05:01.396Z,980.00
2022-10-11T06:06:01.650Z,1020.00
2022-10-11T06:07:01.237Z,1064.00
2022-10-11T06:08:01.193Z,1136.00
2022-10-11T06:09:01.151Z,1220.00
2022-10-11T06:10:01.769Z,1284.00
2022-10-11T06:11:01.057Z,1328.00
2022-10-11T06:12:01.270Z,1356.00
2022-10-11T06:13:01.037Z,1432.00
2022-10-11T06:14:00.930Z,1472.00
2022-10-11T06:15:01.158Z,1456.00
2022-10-11T06:16:00.886Z,1424.00
2022-10-11T06:17:00.886Z,1440.00
2022-10-11T06:18:00.952Z,1468.00
2022-10-11T06:19:00.713Z,1492.00
2022-10-11T06:20:00.673Z,1524.00
2022-10-11T06:21:00.740Z,1576.00
2022-10-11T06:22:00.600Z,1644.00
2022-10-11T06:23:00.729Z,1724.00
2022-10-11T06:24:01.645Z,1804.00
2022-10-11T06:25:00.462Z,1876.00
2022-10-11T06:26:00.546Z,1928.00
2022-10-11T06:27:00.878Z,1928.00
2022-10-11T06:28:00.404Z,1900.00
2022-10-11T06:29:00.420Z,2012.00
2022-10-11T06:30:00.363Z,2224.00
2022-10-11T06:31:00.226Z,2376.00
2022-10-11T06:32:00.497Z,2468.00
2022-10-11T06:33:04.680Z,2556.00
2022-10-11T06:34:00.187Z,2700.00
2022-10-11T06:35:00.114Z,2940.00
2022-10-11T06:36:00.048Z,3204.00
2022-10-11T06:37:00.004Z,3360.00
2022-10-11T06:37:59.906Z,3488.00
2022-10-11T06:39:00.097Z,3596.00
2022-10-11T06:40:00.110Z,3684.00
2022-10-11T06:40:59.784Z,3684.00
2022-10-11T06:41:59.729Z,3756.00
2022-10-11T06:43:00.002Z,3880.00
2022-10-11T06:43:59.754Z,3940.00
2022-10-11T06:44:59.859Z,4008.00
2022-10-11T06:45:59.567Z,4148.00
2022-10-11T06:46:59.522Z,4244.00
2022-10-11T06:47:59.693Z,4428.00
2022-10-11T06:48:59.487Z,4596.00
2022-10-11T06:49:59.696Z,4792.00
2022-10-11T06:51:00.507Z,5076.00
2022-10-11T06:51:59.305Z,5308.00
2022-10-11T06:52:59.264Z,5456.00
2022-10-11T06:53:59.308Z,5588.00
2022-10-11T06:54:59.211Z,5824.00
2022-10-11T06:55:59.172Z,6060.00
2022-10-11T06:56:59.475Z,6276.00
2022-10-11T06:57:59.081Z,6428.00
2022-10-11T06:58:59.140Z,6628.00
2022-10-11T06:59:59.084Z,6952.00
2022-10-11T07:00:59.316Z,7480.00
2022-10-11T07:01:58.883Z,8192.00
2022-10-11T07:02:58.872Z,8624.00
2022-10-11T07:03:58.803Z,8644.00
2022-10-11T07:04:59.244Z,8332.00
2022-10-11T07:06:02.233Z,8076.00
2022-10-11T07:06:58.788Z,7972.00
2022-10-11T07:07:58.677Z,7868.00
2022-10-11T07:08:58.615Z,7748.00
2022-10-11T07:09:59.841Z,7600.00
2022-10-11T07:10:58.507Z,7384.00
2022-10-11T07:11:59.649Z,7244.00
2022-10-11T07:12:58.519Z,7136.00
2022-10-11T07:13:58.387Z,7144.00
2022-10-11T07:14:58.391Z,7132.00
2022-10-11T07:15:58.679Z,7144.00
2022-10-11T07:16:58.274Z,7192.00
2022-10-11T07:17:58.258Z,7196.00
2022-10-11T07:19:00.445Z,7116.00
2022-10-11T07:19:58.159Z,7044.00
2022-10-11T07:20:58.174Z,6980.00
2022-10-11T07:21:58.054Z,6952.00
2022-10-11T07:22:58.363Z,6956.00
2022-10-11T07:23:58.133Z,6980.00
2022-10-11T07:24:59.124Z,7008.00
2022-10-11T07:25:57.880Z,7040.00
2022-10-11T07:26:58.067Z,7096.00
2022-10-11T07:27:57.798Z,7096.00
2022-10-11T07:28:57.889Z,7124.00
2022-10-11T07:29:57.830Z,7164.00
2022-10-11T07:30:57.681Z,7188.00
2022-10-11T07:31:57.993Z,7108.00
2022-10-11T07:32:57.591Z,7196.00
2022-10-11T07:33:58.696Z,7276.00
2022-10-11T07:35:09.948Z,7276.00
2022-10-11T07:36:53.954Z,7436.00
2022-10-11T07:36:57.480Z,7492.00
2022-10-11T07:38:08.007Z,7496.00
2022-10-11T07:39:05.519Z,7444.00
2022-10-11T07:40:06.534Z,7544.00
2022-10-11T07:40:57.255Z,7552.00
2022-10-11T07:41:57.241Z,7528.00
2022-10-11T07:42:57.177Z,7688.00
2022-10-11T07:43:57.122Z,7812.00
2022-10-11T07:44:57.082Z,7876.00
2022-10-11T07:45:57.109Z,7828.00
2022-10-11T07:46:57.024Z,7620.00
2022-10-11T07:47:56.962Z,7760.00
2022-10-11T07:48:56.941Z,7852.00
2022-10-11T07:49:56.874Z,7844.00
2022-10-11T07:50:56.834Z,7928.00
2022-10-11T07:51:56.788Z,8064.00
2022-10-11T07:52:56.754Z,8152.00
2022-10-11T07:53:56.916Z,8268.00
2022-10-11T07:54:56.679Z,8472.00
2022-10-11T07:55:56.623Z,8704.00
2022-10-11T07:56:56.579Z,8608.00
2022-10-11T07:57:56.542Z,8728.00
2022-10-11T07:58:56.518Z,9128.00
2022-10-11T07:59:56.581Z,9372.00
2022-10-11T08:00:56.460Z,9708.00
2022-10-11T08:01:56.477Z,10044.00
2022-10-11T08:02:56.331Z,10364.00
2022-10-11T08:03:56.289Z,10516.00
2022-10-11T08:04:56.247Z,11052.00
2022-10-11T08:05:56.208Z,11360.00
2022-10-11T08:06:56.186Z,11440.00
2022-10-11T08:07:56.125Z,11880.00
2022-10-11T08:08:56.082Z,12200.00
2022-10-11T08:09:56.039Z,12164.00
2022-10-11T08:10:56.001Z,11772.00
2022-10-11T08:11:55.983Z,12392.00
2022-10-11T08:12:57.009Z,13072.00
2022-10-11T08:13:55.872Z,14696.00
2022-10-11T08:14:55.839Z,15252.00
2022-10-11T08:15:55.797Z,15720.00
2022-10-11T08:16:55.783Z,15344.00
2022-10-11T08:17:55.713Z,14148.00
2022-10-11T08:18:55.670Z,12468.00
2022-10-11T08:19:55.629Z,11480.00
2022-10-11T08:20:55.593Z,11428.00
2022-10-11T08:21:55.584Z,11008.00
2022-10-11T08:22:55.513Z,10788.00
2022-10-11T08:23:55.466Z,10760.00
2022-10-11T08:24:55.449Z,10784.00
2022-10-11T08:25:55.392Z,10848.00
2022-10-11T08:26:55.372Z,10924.00
2022-10-11T08:27:55.309Z,11008.00
2022-10-11T08:28:55.376Z,11140.00
2022-10-11T08:29:55.223Z,11288.00
2022-10-11T08:30:55.182Z,11488.00
2022-10-11T08:31:55.146Z,11652.00
2022-10-11T08:32:55.132Z,11640.00
2022-10-11T08:33:55.061Z,11348.00
2022-10-11T08:34:55.019Z,11512.00
2022-10-11T08:35:54.989Z,11528.00
2022-10-11T08:36:54.966Z,11512.00
2022-10-11T08:37:54.897Z,11388.00
2022-10-11T08:38:54.885Z,11616.00
2022-10-11T08:39:54.881Z,11928.00
2022-10-11T08:40:54.777Z,12136.00
2022-10-11T08:41:54.734Z,12468.00
2022-10-11T08:42:54.697Z,12672.00
2022-10-11T08:43:54.674Z,12716.00
2022-10-11T08:45:11.441Z,13004.00
2022-10-11T08:45:54.900Z,12640.00
2022-10-11T08:46:59.545Z,13880.00
2022-10-11T08:47:54.505Z,13416.00
2022-10-11T08:48:54.453Z,14080.00
2022-10-11T08:49:54.410Z,14840.00
2022-10-11T08:50:54.375Z,16736.00
2022-10-11T08:51:54.358Z,17028.00
2022-10-11T08:52:54.289Z,17104.00
2022-10-11T08:53:54.263Z,35648.00
2022-10-11T08:54:54.211Z,27872.00
2022-10-11T08:55:54.167Z,18752.00
2022-10-11T08:56:54.154Z,36896.00
2022-10-11T08:57:54.090Z,28064.00
2022-10-11T08:58:54.051Z,46208.00
2022-10-11T08:59:54.015Z,40992.00
2022-10-11T09:00:54.011Z,23488.00
2022-10-11T09:01:54.845Z,19808.00
2022-10-11T09:03:08.075Z,17440.00
2022-10-11T09:03:53.906Z,15892.00
2022-10-11T09:04:53.829Z,15752.00
2022-10-11T09:05:53.820Z,14428.00
2022-10-11T09:06:53.824Z,13944.00
2022-10-11T09:07:53.785Z,13784.00
2022-10-11T09:08:53.669Z,13796.00
2022-10-11T09:09:53.620Z,14648.00
2022-10-11T09:10:53.643Z,15984.00
2022-10-11T09:11:53.560Z,17952.00
2022-10-11T09:12:53.568Z,18816.00
2022-10-11T09:13:53.467Z,18592.00
2022-10-11T09:14:53.496Z,19904.00
2022-10-11T09:15:53.384Z,24224.00
2022-10-11T09:16:53.366Z,27744.00
2022-10-11T09:17:53.366Z,30560.00
2022-10-11T09:18:53.297Z,31648.00
2022-10-11T09:19:53.287Z,21376.00
2022-10-11T09:20:53.208Z,18080.00
2022-10-11T09:21:53.150Z,17056.00
2022-10-11T09:22:53.111Z,20832.00
2022-10-11T09:23:53.074Z,23936.00
2022-10-11T09:24:53.042Z,26880.00
2022-10-11T09:25:53.021Z,27872.00
2022-10-11T09:26:52.952Z,27136.00
2022-10-11T09:28:08.072Z,27296.00
2022-10-11T09:28:55.152Z,29184.00
2022-10-11T09:29:52.839Z,32704.00
2022-10-11T09:30:52.814Z,25568.00
2022-10-11T09:31:52.818Z,24000.00
2022-10-11T09:32:52.726Z,23712.00
2022-10-11T09:33:52.685Z,27616.00
2022-10-11T09:34:52.673Z,25792.00
2022-10-11T09:35:52.614Z,22688.00
2022-10-11T09:36:52.573Z,22016.00
2022-10-11T09:37:52.536Z,22080.00
2022-10-11T09:38:52.497Z,20960.00
2022-10-11T09:39:52.483Z,20128.00
2022-10-11T09:40:52.426Z,20512.00
2022-10-11T09:41:52.416Z,20672.00
2022-10-11T09:42:52.345Z,20320.00
2022-10-11T09:43:52.337Z,20672.00
2022-10-11T09:44:52.274Z,23264.00
2022-10-11T09:45:52.238Z,22848.00
2022-10-11T09:46:52.222Z,23488.00
2022-10-11T09:47:52.160Z,22688.00
2022-10-11T09:48:52.120Z,23264.00
2022-10-11T09:49:52.084Z,24416.00
2022-10-11T09:50:52.068Z,63360.00
2022-10-11T09:51:52.004Z,26880.00
2022-10-11T09:52:51.992Z,59360.00
2022-10-11T09:53:51.931Z,43360.00
2022-10-11T09:54:51.894Z,48800.00
2022-10-11T09:55:52.225Z,48224.00
2022-10-11T09:56:51.967Z,60256.00
2022-10-11T09:57:51.877Z,49728.00
2022-10-11T09:58:51.776Z,60000.00
2022-10-11T09:59:52.478Z,51872.00
2022-10-11T10:00:51.748Z,62496.00
2022-10-11T10:01:51.674Z,54880.00
2022-10-11T10:02:51.656Z,67296.00
2022-10-11T10:03:51.562Z,41920.00
2022-10-11T10:04:51.578Z,69504.00
2022-10-11T10:05:51.529Z,71200.00
2022-10-11T10:06:52.194Z,71840.00
2022-10-11T10:07:51.523Z,69952.00
2022-10-11T10:08:51.400Z,71424.00
2022-10-11T10:09:51.371Z,63808.00
2022-10-11T10:10:53.656Z,21568.00
2022-10-11T10:11:51.539Z,26304.00
2022-10-11T10:12:51.254Z,71616.00
2022-10-11T10:13:51.223Z,59680.00
2022-10-11T10:14:51.211Z,34816.00
2022-10-11T10:15:51.162Z,73504.00
2022-10-11T10:16:51.144Z,72960.00
2022-10-11T10:17:51.207Z,64960.00
2022-10-11T10:18:51.054Z,70432.00
2022-10-11T10:19:51.033Z,75104.00
2022-10-11T10:20:50.983Z,38048.00
2022-10-11T10:21:51.047Z,74080.00
2022-10-11T10:22:50.948Z,81120.00
2022-10-11T10:23:50.912Z,85184.00
2022-10-11T10:24:50.861Z,66528.00
2022-10-11T10:25:50.825Z,75136.00
2022-10-11T10:26:50.822Z,57248.00
2022-10-11T10:27:50.783Z,71776.00
2022-10-11T10:28:50.928Z,32672.00
2022-10-11T10:29:50.699Z,55616.00
2022-10-11T10:30:50.670Z,62848.00
2022-10-11T10:32:12.717Z,70208.00
2022-10-11T10:32:50.620Z,73568.00
2022-10-11T10:33:50.604Z,73984.00
2022-10-11T10:34:50.544Z,73184.00
2022-10-11T10:35:50.509Z,76384.00
2022-10-11T10:36:50.479Z,80992.00
2022-10-11T10:37:50.450Z,79360.00
2022-10-11T10:38:52.284Z,76000.00
2022-10-11T10:39:50.402Z,34272.00
2022-10-11T10:40:50.356Z,28448.00
2022-10-11T10:41:50.323Z,82848.00
2022-10-11T10:42:50.289Z,81824.00
2022-10-11T10:43:50.255Z,78656.00
2022-10-11T10:44:50.306Z,29088.00
2022-10-11T10:45:50.199Z,87200.00
2022-10-11T10:46:50.166Z,24640.00
2022-10-11T10:47:50.136Z,23328.00
2022-10-11T10:49:28.405Z,49024.00
2022-10-11T10:49:54.145Z,26016.00
2022-10-11T10:50:50.066Z,63040.00
2022-10-11T10:51:50.007Z,57952.00
2022-10-11T10:52:49.972Z,59680.00
2022-10-11T10:53:49.943Z,70080.00
2022-10-11T10:54:49.907Z,68384.00
2022-10-11T10:55:49.879Z,25376.00
2022-10-11T10:56:50.049Z,26080.00
2022-10-11T10:57:49.820Z,35744.00
2022-10-11T10:58:49.791Z,28512.00
2022-10-11T10:59:49.770Z,35904.00
2022-10-11T11:00:49.790Z,74432.00
2022-10-11T11:01:50.652Z,60352.00
2022-10-11T11:02:49.778Z,51392.00
2022-10-11T11:03:49.683Z,33024.00
2022-10-11T11:04:49.655Z,23808.00
2022-10-11T11:05:49.584Z,24544.00
2022-10-11T11:06:49.564Z,27680.00
2022-10-11T11:07:49.569Z,32064.00
2022-10-11T11:08:49.479Z,25792.00
2022-10-11T11:09:49.435Z,23008.00
2022-10-11T11:10:49.403Z,23936.00
2022-10-11T11:11:49.468Z,24672.00
2022-10-11T11:12:49.881Z,24000.00
2022-10-11T11:13:49.302Z,22464.00
2022-10-11T11:14:49.279Z,21152.00
2022-10-11T11:15:49.241Z,20928.00
2022-10-11T11:16:49.197Z,20800.00
2022-10-11T11:17:49.158Z,19616.00
2022-10-11T11:18:49.141Z,18880.00
2022-10-11T11:19:49.177Z,18496.00
2022-10-11T11:20:49.050Z,17692.00
2022-10-11T11:21:49.022Z,17684.00
2022-10-11T11:22:48.998Z,18272.00
2022-10-11T11:23:48.946Z,18944.00
2022-10-11T11:24:49.003Z,20384.00
2022-10-11T11:25:48.878Z,20928.00
2022-10-11T11:26:48.843Z,23616.00
2022-10-11T11:27:48.804Z,29632.00
2022-10-11T11:28:48.862Z,82912.00
2022-10-11T11:29:51.913Z,80608.00
2022-10-11T11:30:48.699Z,58624.00
2022-10-11T11:31:48.665Z,26880.00
2022-10-11T11:32:48.626Z,29600.00
2022-10-11T11:33:49.016Z,24832.00
2022-10-11T11:34:48.576Z,24032.00
2022-10-11T11:35:48.547Z,31200.00
2022-10-11T11:36:48.488Z,25120.00
2022-10-11T11:37:48.451Z,26752.00
2022-10-11T11:38:48.411Z,31104.00
2022-10-11T11:39:48.378Z,54624.00
2022-10-11T11:40:48.337Z,86400.00
2022-10-11T11:41:48.327Z,86720.00
2022-10-11T11:42:48.290Z,40224.00
2022-10-11T11:43:48.235Z,36928.00
2022-10-11T11:44:48.224Z,34944.00
2022-10-11T11:45:48.189Z,40064.00
2022-10-11T11:46:48.159Z,78560.00
2022-10-11T11:47:48.094Z,78784.00
2022-10-11T11:48:48.060Z,70944.00
2022-10-11T11:49:48.043Z,85472.00
2022-10-11T11:50:47.990Z,71904.00
2022-10-11T11:51:47.981Z,34240.00
2022-10-11T11:52:47.945Z,48416.00
2022-10-11T11:53:47.892Z,60768.00
2022-10-11T11:54:47.857Z,68544.00
2022-10-11T11:55:47.821Z,68320.00
2022-10-11T11:56:47.786Z,64800.00
2022-10-11T11:57:47.776Z,48960.00
2022-10-11T11:58:47.714Z,73504.00
2022-10-11T11:59:47.729Z,77088.00
2022-10-11T12:00:47.674Z,45856.00
2022-10-11T12:01:47.670Z,27904.00
2022-10-11T12:02:47.583Z,30080.00
2022-10-11T12:03:47.550Z,30592.00
2022-10-11T12:04:47.547Z,80512.00
2022-10-11T12:05:47.505Z,71904.00
2022-10-11T12:07:11.135Z,73216.00
2022-10-11T12:07:47.419Z,74336.00
2022-10-11T12:08:47.384Z,78464.00
2022-10-11T12:09:47.356Z,81504.00
2022-10-11T12:10:47.320Z,75136.00
2022-10-11T12:11:47.313Z,75104.00
2022-10-11T12:12:47.277Z,49248.00
2022-10-11T12:13:47.225Z,31616.00
2022-10-11T12:14:47.191Z,33408.00
2022-10-11T12:15:47.155Z,34144.00
2022-10-11T12:16:47.159Z,41856.00
2022-10-11T12:17:47.094Z,68608.00
2022-10-11T12:18:47.059Z,34464.00
2022-10-11T12:19:47.029Z,27712.00
2022-10-11T12:20:46.993Z,27168.00
2022-10-11T12:21:47.005Z,28832.00
2022-10-11T12:22:46.949Z,44736.00
2022-10-11T12:23:46.899Z,75136.00
2022-10-11T12:24:46.857Z,74880.00
2022-10-11T12:25:46.829Z,75008.00
2022-10-11T12:26:46.793Z,79296.00
2022-10-11T12:27:46.796Z,76000.00
2022-10-11T12:28:46.772Z,70656.00
2022-10-11T12:29:46.694Z,71232.00
2022-10-11T12:30:46.663Z,66528.00